Time;durP1;ratioP1;P1;durP2;ratioP2;P2;SDS_P1;SDS_P2;PMS_P1;PMS_P2;Temp;Humidity;BMP_temperature;BMP_pressure;BME280_temperature;BME280_humidity;BME280_pressure;Samples;Min_cycle;Max_cycle;Signal;HPM_P1;HPM_P2
2022/04/08 00:00:58;;;;;;;;;;;281.60;2278.40;;;;;;4834827;29;20303;-74
2022/04/08 00:03:27;;;;;;;;;;;281.60;2278.40;;;;;;4833474;29;19913;-74
2022/04/08 00:05:53;;;;;;;;;;;281.70;2278.40;;;;;;4833473;29;19919;-72
2022/04/08 00:08:19;;;;;;;;;;;281.60;2278.40;;;;;;4843168;29;20358;-70
2022/04/08 00:10:45;;;;;;;;;;;281.60;2278.40;;;;;;4843417;29;19915;-73
2022/04/08 00:13:11;;;;;;;;;;;256.90;2252.80;;;;;;4843390;29;19916;-71
2022/04/08 00:15:38;;;;;;;;;;;281.60;2278.40;;;;;;4843302;29;19915;-70
2022/04/08 00:18:04;;;;;;;;;;;256.80;2252.80;;;;;;4826962;29;19908;-70
2022/04/08 00:20:30;;;;;;;;;;;256.80;2252.80;;;;;;4843584;29;19908;-70
2022/04/08 00:22:56;;;;;;;;;;;256.90;2252.80;;;;;;4842821;29;19916;-76
2022/04/08 00:25:21;;;;;;;;;;;256.90;2252.80;;;;;;4843267;29;19957;-69
2022/04/08 00:27:47;;;;;;;;;;;256.90;2252.80;;;;;;4843318;29;19909;-75
2022/04/08 00:30:13;;;;;;;;;;;256.90;2252.80;;;;;;4826940;29;19909;-70
2022/04/08 00:32:38;;;;;;;;;;;256.90;2252.80;;;;;;4843189;29;19948;-70
2022/04/08 00:35:04;;;;;;;;;;;256.90;2252.80;;;;;;4843246;29;20369;-72
2022/04/08 00:37:30;;;;;;;;;;;256.80;2252.80;;;;;;4843183;29;19916;-70
2022/04/08 00:39:56;;;;;;;;;;;256.80;2252.80;;;;;;4843140;29;19908;-74
2022/04/08 00:42:21;;;;;;;;;;;256.80;2252.80;;;;;;4843235;29;20370;-70
2022/04/08 00:44:47;;;;;;;;;;;256.70;2252.80;;;;;;4843069;29;19995;-70
2022/04/08 00:47:13;;;;;;;;;;;256.60;2252.80;;;;;;4843443;29;19912;-70
2022/04/08 00:49:39;;;;;;;;;;;;;;;;;;4842939;29;19925;-70
2022/04/08 00:52:05;;;;;;;;;;;;;;;;;;4841742;29;20361;-72
2022/04/08 00:54:31;;;;;;;;;;;;;;;;;;4841858;29;19938;-76
2022/04/08 00:56:57;;;;;;;;;;;;;;;;;;4843037;29;20270;-71
2022/04/08 00:59:23;;;;;;;;;;;;;;;;;;4843122;29;19909;-70
2022/04/08 01:01:49;;;;;;;;;;;;;;;;;;4842923;29;19922;-72
2022/04/08 01:04:15;;;;;;;;;;;;;;;;;;4843032;29;20003;-71
2022/04/08 01:06:41;;;;;;;;;;;;;;;;;;4841735;29;19958;-78
2022/04/08 01:09:07;;;;;;;;;;;;;;;;;;4842933;29;19947;-69
2022/04/08 01:11:33;;;;;;;;;;;281.60;2278.40;;;;;;4843106;29;19908;-74
2022/04/08 01:14:12;;;;;;;;;;;256.80;2252.80;;;;;;4842815;29;19915;-75
2022/04/08 01:16:38;;;;;;;;;;;256.60;2252.80;;;;;;4842717;29;20427;-70
2022/04/08 01:19:04;;;;;;;;;;;256.60;2252.80;;;;;;4842785;29;20393;-70
2022/04/08 01:21:31;;;;;;;;;;;;;;;;;;4842714;29;19956;-70
2022/04/08 01:23:58;;;;;;;;;;;256.70;2252.80;;;;;;4843041;29;19998;-77
2022/04/08 01:26:24;;;;;;;;;;;256.60;2252.80;;;;;;4842783;29;20251;-70
2022/04/08 01:28:50;;;;;;;;;;;256.50;2252.80;;;;;;4843273;29;20402;-70
2022/04/08 01:31:16;;;;;;;;;;;256.50;2252.80;;;;;;4842705;29;19969;-75
2022/04/08 01:33:42;;;;;;;;;;;256.50;2252.80;;;;;;4843239;29;20247;-74
2022/04/08 01:36:08;;;;;;;;;;;256.60;2252.80;;;;;;4846018;29;19967;-72
2022/04/08 01:38:33;;;;;;;;;;;256.60;2252.80;;;;;;4846039;29;19908;-73
2022/04/08 01:40:59;;;;;;;;;;;256.60;2252.80;;;;;;4845883;29;20362;-70
2022/04/08 01:43:25;;;;;;;;;;;256.70;2252.80;;;;;;4845897;29;19965;-70
2022/04/08 01:45:51;;;;;;;;;;;256.70;2252.80;;;;;;4846124;29;19908;-70
2022/04/08 01:48:17;;;;;;;;;;;256.70;2252.80;;;;;;4846129;29;19912;-70
2022/04/08 01:50:43;;;;;;;;;;;256.70;2252.80;;;;;;4845542;29;19920;-70
2022/04/08 01:53:08;;;;;;;;;;;256.70;2252.80;;;;;;4845652;29;20366;-70
2022/04/08 01:55:34;;;;;;;;;;;256.70;2252.80;;;;;;4845692;29;19912;-74
2022/04/08 01:58:03;;;;;;;;;;;256.70;2252.80;;;;;;4845732;29;19909;-75
2022/04/08 02:00:30;;;;;;;;;;;256.80;2252.80;;;;;;4845622;29;19908;-70
2022/04/08 02:02:56;;;;;;;;;;;256.80;2252.80;;;;;;4845407;29;20011;-75
2022/04/08 02:05:21;;;;;;;;;;;256.70;2252.80;;;;;;4845531;29;20374;-77
2022/04/08 02:07:47;;;;;;;;;;;256.70;2252.80;;;;;;4845452;29;19909;-70
2022/04/08 02:10:13;;;;;;;;;;;256.80;2252.80;;;;;;4845425;29;19914;-69
2022/04/08 02:12:38;;;;;;;;;;;256.70;2252.80;;;;;;4845360;29;20350;-70
2022/04/08 02:15:04;;;;;;;;;;;256.70;2252.80;;;;;;4845363;29;19916;-73
2022/04/08 02:17:31;;;;;;;;;;;256.60;2252.80;;;;;;4845230;29;19908;-70
2022/04/08 02:19:57;;;;;;;;;;;256.60;2252.80;;;;;;4845278;29;19908;-71
2022/04/08 02:22:26;;;;;;;;;;;256.60;2252.80;;;;;;4845475;29;20009;-76
2022/04/08 02:24:52;;;;;;;;;;;256.50;2252.80;;;;;;4845213;29;19964;-70
2022/04/08 02:27:18;;;;;;;;;;;256.50;2252.80;;;;;;4828653;29;19908;-70
2022/04/08 02:29:43;;;;;;;;;;;256.60;2252.80;;;;;;4845152;29;19909;-74
2022/04/08 02:32:10;;;;;;;;;;;256.50;2252.80;;;;;;4828589;29;20315;-70
2022/04/08 02:34:39;;;;;;;;;;;256.50;2252.80;;;;;;4845067;29;19909;-70
2022/04/08 02:37:05;;;;;;;;;;;256.50;2252.80;;;;;;4845019;29;19919;-72
2022/04/08 02:39:31;;;;;;;;;;;256.40;2252.80;;;;;;4844971;29;20318;-70
2022/04/08 02:41:57;;;;;;;;;;;256.40;2252.80;;;;;;4844818;29;19971;-74
2022/04/08 02:44:23;;;;;;;;;;;;;;;;;;4844877;29;20370;-71
2022/04/08 02:46:49;;;;;;;;;;;;;;;;;;4842953;29;19916;-70
2022/04/08 02:49:15;;;;;;;;;;;;;;;;;;4844590;29;19919;-73
2022/04/08 02:51:41;;;;;;;;;;;;;;;;;;4844764;29;19912;-70
2022/04/08 02:54:07;;;;;;;;;;;;;;;;;;4843526;29;19908;-75
2022/04/08 02:56:33;;;;;;;;;;;;;;;;;;4843431;29;19999;-70
2022/04/08 02:59:00;;;;;;;;;;;;;;;;;;4844891;29;19916;-75
2022/04/08 03:01:26;;;;;;;;;;;;;;;;;;4844474;29;19960;-71
2022/04/08 03:03:52;;;;;;;;;;;;;;;;;;4843339;29;19912;-76
2022/04/08 03:06:18;;;;;;;;;;;;;;;;;;4844508;29;19908;-71
2022/04/08 03:08:45;;;;;;;;;;;;;;;;;;4844531;29;19912;-71
2022/04/08 03:11:11;;;;;;;;;;;;;;;;;;4843174;29;19916;-74
2022/04/08 03:13:37;;;;;;;;;;;;;;;;;;4844363;29;19915;-71
2022/04/08 03:16:03;;;;;;;;;;;;;;;;;;4844342;29;19909;-71
2022/04/08 03:18:29;;;;;;;;;;;;;;;;;;4843039;29;19999;-74
2022/04/08 03:20:55;;;;;;;;;;;;;;;;;;4844197;29;20365;-74
2022/04/08 03:23:20;;;;;;;;;;;256.00;2252.80;;;;;;4844172;29;20389;-70
2022/04/08 03:25:46;;;;;;;;;;;231.30;2252.80;;;;;;4844122;29;19908;-75
2022/04/08 03:28:12;;;;;;;;;;;;;;;;;;4844418;29;19915;-70
2022/04/08 03:30:38;;;;;;;;;;;231.30;2252.80;;;;;;4844117;29;19908;-70
2022/04/08 03:33:04;;;;;;;;;;;231.10;2252.80;;;;;;4844033;29;19920;-76
2022/04/08 03:35:30;;;;;;;;;;;;;;;;;;4827663;29;19914;-76
2022/04/08 03:37:56;;;;;;;;;;;;;;;;;;4844214;29;20350;-77
2022/04/08 03:40:22;;;;;;;;;;;231.20;2252.80;;;;;;4843851;29;19908;-70
2022/04/08 03:42:48;;;;;;;;;;;;;;;;;;4843782;29;19923;-76
2022/04/08 03:45:14;;;;;;;;;;;;;;;;;;4843839;29;19908;-76
2022/04/08 03:47:40;;;;;;;;;;;;;;;;;;4844043;29;20306;-70
2022/04/08 03:50:06;;;;;;;;;;;;;;;;;;4843508;29;19920;-76
2022/04/08 03:52:32;;;;;;;;;;;;;;;;;;4843690;29;19908;-70
2022/04/08 03:54:58;;;;;;;;;;;;;;;;;;4843731;29;19914;-75
2022/04/08 03:57:24;;;;;;;;;;;;;;;;;;4842886;29;19912;-75
2022/04/08 03:59:50;;;;;;;;;;;;;;;;;;4843576;29;19908;-70
2022/04/08 04:02:16;;;;;;;;;;;;;;;;;;4843511;29;19963;-70
2022/04/08 04:04:42;;;;;;;;;;;;;;;;;;4843679;29;19909;-70
2022/04/08 04:07:08;;;;;;;;;;;;;;;;;;4843447;29;19908;-76
2022/04/08 04:09:35;;;;;;;;;;;;;;;;;;4843974;29;20003;-72
2022/04/08 04:12:01;;;;;;;;;;;;;;;;;;4842235;29;19912;-71
2022/04/08 04:14:27;;;;;;;;;;;;;;;;;;4843494;29;20077;-74
2022/04/08 04:16:53;;;;;;;;;;;;;;;;;;4843424;29;20618;-70
2022/04/08 04:19:19;;;;;;;;;;;;;;;;;;4843392;29;19908;-73
2022/04/08 04:21:45;;;;;;;;;;;;;;;;;;4843241;29;19920;-70
2022/04/08 04:24:11;;;;;;;;;;;;;;;;;;4843350;29;19908;-78
2022/04/08 04:26:37;;;;;;;;;;;;;;;;;;4843310;29;19982;-77
2022/04/08 04:29:03;;;;;;;;;;;;;;;;;;4843339;29;19908;-74
2022/04/08 04:31:29;;;;;;;;;;;;;;;;;;4832642;29;20362;-71
2022/04/08 04:33:54;;;;;;;;;;;;;;;;;;4825056;29;19919;-72
2022/04/08 04:36:20;;;;;;;;;;;;;;;;;;4825081;29;19973;-70
2022/04/08 04:38:47;;;;;;;;;;;;;;;;;;4808640;29;19912;-70
2022/04/08 04:41:13;;;;;;;;;;;;;;;;;;4824940;29;19917;-70
2022/04/08 04:43:39;;;;;;;;;;;;;;;;;;4825341;29;19957;-70
2022/04/08 04:46:05;;;;;;;;;;;;;;;;;;4824906;29;20007;-70
2022/04/08 04:48:31;;;;;;;;;;;;;;;;;;4825184;29;19909;-74
2022/04/08 04:50:57;;;;;;;;;;;;;;;;;;4808331;29;19928;-70
2022/04/08 04:53:23;;;;;;;;;;;;;;;;;;4824861;29;19909;-71
2022/04/08 04:55:49;;;;;;;;;;;;;;;;;;4824831;29;20248;-71
2022/04/08 04:58:15;;;;;;;;;;;;;;;;;;4825083;29;20354;-71
2022/04/08 05:00:41;;;;;;;;;;;;;;;;;;4824825;29;19991;-70
2022/04/08 05:03:08;;;;;;;;;;;;;;;;;;4824672;29;20015;-75
2022/04/08 05:05:34;;;;;;;;;;;;;;;;;;4824758;29;19957;-70
2022/04/08 05:08:00;;;;;;;;;;;;;;;;;;4808273;29;19909;-70
2022/04/08 05:10:26;;;;;;;;;;;;;;;;;;4827404;29;20316;-71
2022/04/08 05:12:52;;;;;;;;;;;;;;;;;;4828056;29;19909;-72
2022/04/08 05:15:18;;;;;;;;;;;;;;;;;;4828017;29;19909;-72
2022/04/08 05:17:45;;;;;;;;;;;;;;;;;;4828183;29;19959;-70
2022/04/08 05:20:11;;;;;;;;;;;;;;;;;;4811613;29;19909;-70
2022/04/08 05:22:38;;;;;;;;;;;;;;;;;;4827856;29;19917;-70
2022/04/08 05:25:04;;;;;;;;;;;;;;;;;;4827834;29;20042;-70
2022/04/08 05:27:30;;;;;;;;;;;;;;;;;;4827786;29;19909;-75
2022/04/08 05:29:56;;;;;;;;;;;;;;;;;;4827879;29;20432;-71
2022/04/08 05:32:22;;;;;;;;;;;;;;;;;;4827760;29;19908;-76
2022/04/08 05:34:48;;;;;;;;;;;;;;;;;;4827590;29;19965;-76
2022/04/08 05:37:14;;;;;;;;;;;;;;;;;;4827791;29;20401;-70
2022/04/08 05:39:40;;;;;;;;;;;;;;;;;;4827837;29;20004;-70
2022/04/08 05:42:06;;;;;;;;;;;;;;;;;;4827431;29;20019;-70
2022/04/08 05:44:32;;;;;;;;;;;;;;;;;;4827487;29;19908;-77
2022/04/08 05:46:58;;;;;;;;;;;;;;;;;;4827764;29;19909;-74
2022/04/08 05:49:24;;;;;;;;;;;;;;;;;;4827189;29;20435;-70
2022/04/08 05:51:50;;;;;;;;;;;;;;;;;;4827457;29;19916;-70
2022/04/08 05:54:16;;;;;;;;;;;;;;;;;;4827575;29;19909;-74
2022/04/08 05:56:42;;;;;;;;;;;;;;;;;;4827286;29;19915;-70
2022/04/08 05:59:08;;;;;;;;;;;;;;;;;;4827271;29;20286;-70
2022/04/08 06:01:34;;;;;;;;;;;;;;;;;;4827299;29;20420;-71
2022/04/08 06:04:00;;;;;;;;;;;;;;;;;;4827519;29;19909;-70
2022/04/08 06:06:26;;;;;;;;;;;;;;;;;;4827223;29;19908;-73
2022/04/08 06:08:52;;;;;;;;;;;;;;;;;;4827156;29;20362;-69
2022/04/08 06:11:18;;;;;;;;;;;;;;;;;;4826836;29;19909;-70
2022/04/08 06:13:44;;;;;;;;;;;;;;;;;;4827025;29;19915;-72
2022/04/08 06:16:10;;;;;;;;;;;;;;;;;;4825439;29;19916;-70
2022/04/08 06:18:36;;;;;;;;;;;;;;;;;;4825975;29;20366;-70
2022/04/08 06:21:04;;;;;;;;;;;;;;;;;;4825866;29;20271;-71
2022/04/08 06:23:30;;;;;;;;;;;;;;;;;;4827186;29;19942;-70
2022/04/08 06:25:56;;;;;;;;;;;;;;;;;;4810574;29;19909;-70
2022/04/08 06:28:22;;;;;;;;;;;;;;;;;;4826792;29;20374;-71
2022/04/08 06:30:48;;;;;;;;;;;333.30;2329.60;;;;;;4826795;29;19909;-70
2022/04/08 06:33:13;;;;;;;;;;;333.20;2329.60;;;;;;4811066;29;19919;-75
2022/04/08 06:35:39;;;;;;;;;;;;;;;;;;4831591;29;20007;-70
2022/04/08 06:38:05;;;;;;;;;;;;;;;;;;4845228;29;19919;-70
2022/04/08 06:40:35;;;;;;;;;;;358.40;2329.60;;;;;;4844944;29;19909;-69
2022/04/08 06:43:01;;;;;;;;;;;358.50;2329.60;;;;;;4844903;29;19923;-74
2022/04/08 06:45:27;;;;;;;;;;;358.40;2329.60;;;;;;4844819;29;20358;-70
2022/04/08 06:47:53;;;;;;;;;;;333.70;2329.60;;;;;;4828285;29;19928;-78
2022/04/08 06:50:19;;;;;;;;;;;333.70;2329.60;;;;;;4844652;29;19928;-70
2022/04/08 06:52:45;;;;;;;;;;;358.40;2329.60;;;;;;4844843;29;19913;-71
2022/04/08 06:55:12;;;;;;;;;;;358.50;2329.60;;;;;;4844674;29;19943;-69
2022/04/08 06:57:37;;;;;;;;;;;358.50;2329.60;;;;;;4844883;29;19975;-75
2022/04/08 07:00:04;;;;;;;;;;;358.50;2329.60;;;;;;4844647;29;20384;-70
2022/04/08 07:02:30;;;;;;;;;;;358.50;2329.60;;;;;;4844417;29;19964;-69
2022/04/08 07:04:56;;;;;;;;;;;358.50;2329.60;;;;;;4844555;29;20010;-76
2022/04/08 07:07:26;;;;;;;;;;;358.50;2329.60;;;;;;4844632;29;19908;-74
2022/04/08 07:09:51;;;;;;;;;;;358.60;2329.60;;;;;;4844501;29;19908;-70
2022/04/08 07:12:17;;;;;;;;;;;358.60;2329.60;;;;;;4844387;29;19908;-74
2022/04/08 07:14:43;;;;;;;;;;;358.60;2329.60;;;;;;4844493;29;20415;-69
2022/04/08 07:17:08;;;;;;;;;;;358.70;2329.60;;;;;;4844280;29;20003;-72
2022/04/08 07:19:34;;;;;;;;;;;358.70;2329.60;;;;;;4844189;29;19916;-70
2022/04/08 07:22:00;;;;;;;;;;;358.70;2329.60;;;;;;4827777;29;20353;-74
2022/04/08 07:24:25;;;;;;;;;;;358.70;2329.60;;;;;;4844123;29;19909;-71
2022/04/08 07:26:52;;;;;;;;;;;358.80;2329.60;;;;;;4844069;29;19960;-69
2022/04/08 07:29:17;;;;;;;;;;;358.80;2329.60;;;;;;4844054;29;19938;-69
2022/04/08 07:31:43;;;;;;;;;;;358.90;2329.60;;;;;;4843743;29;19908;-70
2022/04/08 07:34:09;;;;;;;;;;;359.00;2329.60;;;;;;4843924;29;20003;-69
2022/04/08 07:36:34;;;;;;;;;;;358.90;2329.60;;;;;;4844097;29;19912;-73
2022/04/08 07:39:00;;;;;;;;;;;359.00;2329.60;;;;;;4843918;29;19908;-75
2022/04/08 07:41:26;;;;;;;;;;;359.00;2329.60;;;;;;4844059;29;20346;-71
2022/04/08 07:43:52;;;;;;;;;;;358.90;2329.60;;;;;;4844017;29;19919;-75
2022/04/08 07:46:18;;;;;;;;;;;358.90;2329.60;;;;;;4843770;29;19909;-69
2022/04/08 07:48:43;;;;;;;;;;;358.90;2329.60;;;;;;4843750;29;19956;-70
2022/04/08 07:51:09;;;;;;;;;;;358.90;2329.60;;;;;;4843609;29;19921;-70
2022/04/08 07:53:35;;;;;;;;;;;358.90;2329.60;;;;;;4844055;29;19916;-72
2022/04/08 07:56:00;;;;;;;;;;;358.90;2329.60;;;;;;4843714;29;19915;-69
2022/04/08 07:58:26;;;;;;;;;;;358.90;2329.60;;;;;;4843810;29;20043;-69
2022/04/08 08:00:54;;;;;;;;;;;358.90;2329.60;;;;;;4843685;29;19912;-69
2022/04/08 08:03:20;;;;;;;;;;;358.90;2329.60;;;;;;4843502;29;19917;-69
2022/04/08 08:05:46;;;;;;;;;;;358.90;2329.60;;;;;;4843802;29;20326;-69
2022/04/08 08:08:11;;;;;;;;;;;359.00;2329.60;;;;;;4843477;29;19912;-72
2022/04/08 08:10:39;;;;;;;;;;;359.10;2329.60;;;;;;4843436;29;19909;-76
2022/04/08 08:13:05;;;;;;;;;;;359.10;2329.60;;;;;;4843545;29;19955;-75
2022/04/08 08:15:31;;;;;;;;;;;359.10;2329.60;;;;;;4843385;29;20418;-70
2022/04/08 08:17:59;;;;;;;;;;;359.20;2329.60;;;;;;4843373;29;20338;-70
2022/04/08 08:20:25;;;;;;;;;;;359.20;2329.60;;;;;;4843339;29;19916;-70
2022/04/08 08:22:51;;;;;;;;;;;359.20;2329.60;;;;;;4843727;29;19923;-71
2022/04/08 08:25:17;;;;;;;;;;;359.20;2329.60;;;;;;4843329;29;20003;-70
2022/04/08 08:27:44;;;;;;;;;;;359.20;2329.60;;;;;;4843319;29;19915;-69
2022/04/08 08:30:11;;;;;;;;;;;359.30;2329.60;;;;;;4843314;29;19969;-71
2022/04/08 08:32:37;;;;;;;;;;;359.30;2329.60;;;;;;4843271;29;19915;-70
2022/04/08 08:35:07;;;;;;;;;;;359.20;2329.60;;;;;;4843136;29;19908;-75
2022/04/08 08:37:33;;;;;;;;;;;359.30;2329.60;;;;;;4843264;29;19915;-69
2022/04/08 08:39:59;;;;;;;;;;;359.30;2329.60;;;;;;4843425;29;19908;-69
2022/04/08 08:42:24;;;;;;;;;;;384.00;2329.60;;;;;;4843343;29;19920;-70
2022/04/08 08:44:50;;;;;;;;;;;384.10;2329.60;;;;;;4845248;29;19909;-74
2022/04/08 08:47:17;;;;;;;;;;;384.10;2329.60;;;;;;4847147;29;19912;-69
2022/04/08 08:49:47;;;;;;;;;;;384.20;2329.60;;;;;;4830046;29;20438;-69
2022/04/08 08:52:14;;;;;;;;;;;384.30;2329.60;;;;;;4846824;29;19956;-70
2022/04/08 08:54:40;;;;;;;;;;;384.40;2329.60;;;;;;4846753;29;19999;-69
2022/04/08 08:57:06;;;;;;;;;;;384.60;2329.60;;;;;;4846798;29;19908;-69
2022/04/08 08:59:31;;;;;;;;;;;384.70;2329.60;;;;;;4845636;29;20000;-70
2022/04/08 09:02:01;;;;;;;;;;;384.80;2329.60;;;;;;4828186;29;19927;-70
2022/04/08 09:04:27;;;;;;;;;;;409.60;2355.20;;;;;;4828810;29;19954;-69
2022/04/08 09:06:53;;;;;;;;;;;409.70;2355.20;;;;;;4837376;29;19948;-71
2022/04/08 09:09:27;;;;;;;;;;;409.80;2355.20;;;;;;4829001;29;19916;-70
2022/04/08 09:11:52;;;;;;;;;;;409.80;2355.20;;;;;;4827761;29;20349;-70
2022/04/08 09:14:25;;;;;;;;;;;409.80;2355.20;;;;;;4827718;29;19948;-70
2022/04/08 09:16:58;;;;;;;;;;;409.70;2355.20;;;;;;4843216;29;19913;-70
2022/04/08 09:19:24;;;;;;;;;;;409.70;2355.20;;;;;;4846435;29;19915;-76
2022/04/08 09:21:53;;;;;;;;;;;409.80;2355.20;;;;;;4846060;29;19912;-72
2022/04/08 09:24:22;;;;;;;;;;;409.80;2355.20;;;;;;4830089;29;19909;-73
2022/04/08 09:26:50;;;;;;;;;;;409.90;2355.20;;;;;;4828259;29;20438;-75
2022/04/08 09:29:18;;;;;;;;;;;410.10;2355.20;;;;;;4837465;29;20003;-76
2022/04/08 09:31:47;;;;;;;;;;;410.20;2355.20;;;;;;4836328;29;19908;-76
2022/04/08 09:34:13;;;;;;;;;;;410.40;2355.20;;;;;;4835544;29;19916;-70
2022/04/08 09:36:40;;;;;;;;;;;410.50;2355.20;;;;;;4837216;29;19909;-77
2022/04/08 09:39:10;;;;;;;;;;;435.30;2355.20;;;;;;4832393;29;19909;-70
2022/04/08 09:41:39;;;;;;;;;;;435.90;2329.60;;;;;;4811265;29;20282;-69
2022/04/08 09:44:09;;;;;;;;;;;435.90;2304.00;;;;;;4828785;29;20378;-73
2022/04/08 09:46:36;;;;;;;;;;;436.00;2278.40;;;;;;4841495;29;20013;-71
2022/04/08 09:49:04;;;;;;;;;;;461.10;2201.60;;;;;;4836750;29;19909;-71
2022/04/08 09:51:34;;;;;;;;;;;461.20;2150.40;;;;;;4836273;29;19921;-78
2022/04/08 09:54:04;;;;;;;;;;;461.40;2150.40;;;;;;4835221;29;19948;-77
2022/04/08 09:56:30;;;;;;;;;;;486.50;2099.20;;;;;;4837502;29;19908;-77
2022/04/08 09:59:01;;;;;;;;;;;487.10;2022.40;;;;;;4841978;29;19913;-76
2022/04/08 10:01:28;;;;;;;;;;;487.10;1945.60;;;;;;4830290;29;19916;-77
2022/04/08 10:03:54;;;;;;;;;;;;;;;;;;4839360;29;19908;-70
2022/04/08 10:06:21;;;;;;;;;;;512.00;1868.80;;;;;;4845453;29;20434;-76
2022/04/08 10:08:47;;;;;;;;;;;512.00;1945.60;;;;;;4845379;29;19957;-75
2022/04/08 10:11:18;;;;;;;;;;;512.00;1868.80;;;;;;4845465;29;19931;-70
2022/04/08 10:13:49;;;;;;;;;;;487.20;1868.80;;;;;;4845626;29;19948;-69
2022/04/08 10:16:19;;;;;;;;;;;487.30;1843.20;;;;;;4845275;29;19913;-75
2022/04/08 10:18:46;;;;;;;;;;;512.20;1817.60;;;;;;4845138;29;19912;-75
2022/04/08 10:21:12;;;;;;;;;;;537.60;1766.40;;;;;;4845112;29;19916;-69
2022/04/08 10:23:39;;;;;;;;;;;537.60;1792.00;;;;;;4845695;29;19913;-69
2022/04/08 10:26:05;;;;;;;;;;;537.80;1817.60;;;;;;4845056;29;19912;-71
2022/04/08 10:28:37;;;;;;;;;;;538.50;1715.20;;;;;;4845090;29;19973;-71
2022/04/08 10:31:20;;;;;;;;;;;538.50;1689.60;;;;;;4844995;29;19964;-77
2022/04/08 10:33:50;;;;;;;;;;;538.50;1664.00;;;;;;4844917;29;20285;-69
2022/04/08 10:36:16;;;;;;;;;;;563.20;1664.00;;;;;;4844939;29;19968;-75
2022/04/08 10:38:41;;;;;;;;;;;563.30;1664.00;;;;;;4844883;29;19951;-76
2022/04/08 10:41:10;;;;;;;;;;;563.30;1638.40;;;;;;4844782;29;20330;-70
2022/04/08 10:43:43;;;;;;;;;;;563.80;1638.40;;;;;;4844780;29;19912;-78
2022/04/08 10:46:08;;;;;;;;;;;564.00;1612.80;;;;;;4844769;29;19908;-68
2022/04/08 10:48:34;;;;;;;;;;;564.10;1536.00;;;;;;4844773;29;20072;-69
2022/04/08 10:51:13;;;;;;;;;;;588.90;1510.40;;;;;;4844476;29;19921;-70
2022/04/08 10:53:41;;;;;;;;;;;589.00;1459.20;;;;;;4844687;29;19916;-68
2022/04/08 10:56:12;;;;;;;;;;;589.10;1510.40;;;;;;4844750;29;19956;-70
2022/04/08 10:58:42;;;;;;;;;;;589.30;1484.80;;;;;;4844590;29;19909;-68
2022/04/08 11:01:14;;;;;;;;;;;589.30;1510.40;;;;;;4844541;29;19909;-68
2022/04/08 11:03:45;;;;;;;;;;;589.40;1510.40;;;;;;4844547;29;19920;-70
2022/04/08 11:06:15;;;;;;;;;;;589.10;1484.80;;;;;;4844394;29;19987;-69
2022/04/08 11:08:41;;;;;;;;;;;589.20;1484.80;;;;;;4844095;29;20286;-69
2022/04/08 11:11:07;;;;;;;;;;;589.20;1484.80;;;;;;4844425;29;19909;-68
2022/04/08 11:13:32;;;;;;;;;;;589.00;1459.20;;;;;;4844283;29;19916;-71
2022/04/08 11:15:58;;;;;;;;;;;589.30;1484.80;;;;;;4844183;29;19908;-69
2022/04/08 11:18:24;;;;;;;;;;;589.10;1459.20;;;;;;4843050;29;19915;-69
2022/04/08 11:20:50;;;;;;;;;;;589.00;1459.20;;;;;;4844474;29;20313;-70
2022/04/08 11:23:29;;;;;;;;;;;588.80;1433.60;;;;;;4844675;29;19916;-68
2022/04/08 11:25:55;;;;;;;;;;;589.10;1433.60;;;;;;4844123;29;19912;-69
2022/04/08 11:28:22;;;;;;;;;;;614.50;1433.60;;;;;;4844167;29;20063;-68
2022/04/08 11:30:53;;;;;;;;;;;614.40;1408.00;;;;;;4827546;29;19909;-69
2022/04/08 11:33:19;;;;;;;;;;;614.50;1382.40;;;;;;4843630;29;19947;-68
2022/04/08 11:35:46;;;;;;;;;;;614.50;1382.40;;;;;;4843665;29;19912;-72
2022/04/08 11:38:15;;;;;;;;;;;614.70;1382.40;;;;;;4843294;29;19943;-68
2022/04/08 11:40:41;;;;;;;;;;;614.80;1356.80;;;;;;4843911;29;19909;-67
2022/04/08 11:43:07;;;;;;;;;;;589.60;1382.40;;;;;;4843862;29;19916;-69
2022/04/08 11:45:33;;;;;;;;;;;589.20;1408.00;;;;;;4843878;29;20350;-68
2022/04/08 11:47:59;;;;;;;;;;;564.10;1433.60;;;;;;4827473;29;19934;-75
2022/04/08 11:50:26;;;;;;;;;;;563.90;1433.60;;;;;;4843636;29;20347;-69
2022/04/08 11:52:55;;;;;;;;;;;563.90;1459.20;;;;;;4843739;29;19908;-77
2022/04/08 11:55:22;;;;;;;;;;;563.90;1459.20;;;;;;4842456;29;19955;-68
2022/04/08 11:57:48;;;;;;;;;;;563.70;1484.80;;;;;;4843793;29;19908;-68
2022/04/08 12:00:14;;;;;;;;;;;563.80;1459.20;;;;;;4842441;29;19915;-68
2022/04/08 12:02:40;;;;;;;;;;;564.00;1459.20;;;;;;4843498;29;19917;-69
2022/04/08 12:05:07;;;;;;;;;;;563.60;1459.20;;;;;;4843855;29;19945;-76
2022/04/08 12:07:33;;;;;;;;;;;563.20;1510.40;;;;;;4843735;29;19915;-68
2022/04/08 12:10:00;;;;;;;;;;;563.40;1484.80;;;;;;4843494;29;19991;-77
2022/04/08 12:12:27;;;;;;;;;;;563.30;1536.00;;;;;;4843475;29;19915;-68
2022/04/08 12:14:53;;;;;;;;;;;538.40;1510.40;;;;;;4843450;29;19941;-73
2022/04/08 12:17:19;;;;;;;;;;;538.10;1536.00;;;;;;4843412;29;19913;-69
2022/04/08 12:19:47;;;;;;;;;;;538.10;1561.60;;;;;;4842571;29;19912;-71
2022/04/08 12:22:14;;;;;;;;;;;538.50;1510.40;;;;;;4843473;29;19962;-68
2022/04/08 12:24:43;;;;;;;;;;;563.50;1561.60;;;;;;4843373;29;20322;-76
2022/04/08 12:27:13;;;;;;;;;;;563.90;1484.80;;;;;;4842135;29;20389;-76
2022/04/08 12:29:40;;;;;;;;;;;589.10;1484.80;;;;;;4843277;29;20270;-74
2022/04/08 12:32:12;;;;;;;;;;;589.60;1408.00;;;;;;4843215;29;19959;-68
2022/04/08 12:34:37;;;;;;;;;;;614.60;1382.40;;;;;;4826519;29;20273;-68
2022/04/08 12:37:03;;;;;;;;;;;614.80;1356.80;;;;;;4826822;29;19908;-77
2022/04/08 12:39:29;;;;;;;;;;;614.60;1331.20;;;;;;4843177;29;19965;-76
2022/04/08 12:41:58;;;;;;;;;;;614.80;1356.80;;;;;;4843061;29;19917;-72
2022/04/08 12:44:24;;;;;;;;;;;614.90;1356.80;;;;;;4843149;29;19959;-68
2022/04/08 12:46:51;;;;;;;;;;;615.00;1331.20;;;;;;4843170;29;20354;-69
2022/04/08 12:49:17;;;;;;;;;;;615.20;1305.60;;;;;;4843367;29;19913;-69
2022/04/08 12:51:43;;;;;;;;;;;640.40;1305.60;;;;;;4842897;29;20342;-77
2022/04/08 12:54:09;;;;;;;;;;;640.30;1280.00;;;;;;4843321;29;19909;-69
2022/04/08 12:56:35;;;;;;;;;;;614.90;1305.60;;;;;;4841739;29;20333;-76
2022/04/08 12:59:01;;;;;;;;;;;615.10;1305.60;;;;;;4843058;29;19908;-76
2022/04/08 13:01:30;;;;;;;;;;;614.80;1331.20;;;;;;4843081;29;20239;-75
2022/04/08 13:03:56;;;;;;;;;;;614.60;1382.40;;;;;;4843014;29;19965;-69
2022/04/08 13:06:21;;;;;;;;;;;614.50;1331.20;;;;;;4843005;29;19973;-77
2022/04/08 13:08:47;;;;;;;;;;;589.60;1356.80;;;;;;4826707;29;20350;-77
2022/04/08 13:11:13;;;;;;;;;;;589.60;1382.40;;;;;;4842907;29;19908;-77
2022/04/08 13:13:39;;;;;;;;;;;589.50;1356.80;;;;;;4842890;29;19912;-68
2022/04/08 13:16:05;;;;;;;;;;;589.40;1356.80;;;;;;4843084;29;20011;-78
2022/04/08 13:18:30;;;;;;;;;;;589.40;1382.40;;;;;;4843118;29;19908;-69
2022/04/08 13:20:56;;;;;;;;;;;589.40;1408.00;;;;;;4842796;29;20071;-70
2022/04/08 13:23:22;;;;;;;;;;;589.50;1408.00;;;;;;4842777;29;19916;-77
2022/04/08 13:25:48;;;;;;;;;;;589.50;1382.40;;;;;;4842786;29;19908;-77
2022/04/08 13:28:16;;;;;;;;;;;589.40;1382.40;;;;;;4842750;29;20414;-68
2022/04/08 13:30:42;;;;;;;;;;;589.30;1382.40;;;;;;4844397;29;20011;-69
2022/04/08 13:33:07;;;;;;;;;;;589.30;1382.40;;;;;;4846182;29;19999;-68
2022/04/08 13:35:34;;;;;;;;;;;589.00;1408.00;;;;;;4846418;29;19914;-72
2022/04/08 13:37:59;;;;;;;;;;;589.00;1408.00;;;;;;4846065;29;20013;-76
2022/04/08 13:40:26;;;;;;;;;;;589.50;1382.40;;;;;;4846050;29;19999;-71
2022/04/08 13:42:52;;;;;;;;;;;640.60;1305.60;;;;;;4845919;29;19918;-76
2022/04/08 13:45:17;;;;;;;;;;;717.30;1203.20;;;;;;4844805;29;19909;-82
2022/04/08 13:47:43;;;;;;;;;;;;;;;;;;4846313;29;20270;-78
2022/04/08 13:50:10;;;;;;;;;;;845.00;998.40;;;;;;4845649;29;19993;-70
2022/04/08 13:52:36;;;;;;;;;;;820.00;998.40;;;;;;4846131;29;19978;-78
2022/04/08 13:55:03;;;;;;;;;;;820.00;972.80;;;;;;4845446;29;20374;-80
2022/04/08 13:57:29;;;;;;;;;;;;;;;;;;4845755;29;20004;-74
2022/04/08 13:59:54;;;;;;;;;;;870.80;896.00;;;;;;4845702;29;19981;-80
2022/04/08 14:02:20;;;;;;;;;;;896.10;870.40;;;;;;4845504;29;19916;-70
2022/04/08 14:04:46;;;;;;;;;;;896.50;870.40;;;;;;4845710;29;19916;-82
2022/04/08 14:07:11;;;;;;;;;;;896.80;870.40;;;;;;4844397;29;19909;-71
2022/04/08 14:09:37;;;;;;;;;;;972.80;793.60;;;;;;4828864;29;19909;-69
2022/04/08 14:12:03;;;;;;;;;;;870.60;870.40;;;;;;4845520;29;19916;-80
2022/04/08 14:14:28;;;;;;;;;;;819.20;896.00;;;;;;4845363;29;19909;-79
2022/04/08 14:16:54;;;;;;;;;;;743.00;972.80;;;;;;4845508;29;19995;-70
2022/04/08 14:19:20;;;;;;;;;;;691.90;1024.00;;;;;;4845641;29;19999;-70
2022/04/08 14:21:45;;;;;;;;;;;691.30;1075.20;;;;;;4828706;29;20015;-69
2022/04/08 14:24:11;;;;;;;;;;;640.80;1100.80;;;;;;4845409;29;19915;-82